sensor_id;sensor_type;location;lat;lon;timestamp;pressure;altitude;pressure_sealevel;temperature;humidity
29121;BME280;16191;49.548;8.658;2023-02-02T00:00:27;100946.13;;;6.43;100.00
29121;BME280;16191;49.548;8.658;2023-02-02T00:02:53;100939.28;;;6.39;100.00
29121;BME280;16191;49.548;8.658;2023-02-02T00:05:20;100948.78;;;6.39;100.00
29121;BME280;16191;49.548;8.658;2023-02-02T00:07:47;100947.97;;;6.34;100.00
29121;BME280;16191;49.548;8.658;2023-02-02T00:10:14;100946.19;;;6.39;100.00
29121;BME280;16191;49.548;8.658;2023-02-02T00:12:41;100940.16;;;6.37;100.00
29121;BME280;16191;49.548;8.658;2023-02-02T00:15:07;100938.41;;;6.39;100.00
29121;BME280;16191;49.548;8.658;2023-02-02T00:17:34;100939.25;;;6.41;100.00
29121;BME280;16191;49.548;8.658;2023-02-02T00:20:01;100941.84;;;6.41;100.00
29121;BME280;16191;49.548;8.658;2023-02-02T00:22:28;100949.59;;;6.42;100.00
29121;BME280;16191;49.548;8.658;2023-02-02T00:24:54;100949.56;;;6.45;100.00
29121;BME280;16191;49.548;8.658;2023-02-02T00:27:21;100955.63;;;6.46;100.00
29121;BME280;16191;49.548;8.658;2023-02-02T00:29:48;100954.78;;;6.44;100.00
29121;BME280;16191;49.548;8.658;2023-02-02T00:32:19;100951.28;;;6.48;100.00
29121;BME280;16191;49.548;8.658;2023-02-02T00:34:46;100959.94;;;6.45;100.00
29121;BME280;16191;49.548;8.658;2023-02-02T00:37:12;100954.75;;;6.47;100.00
29121;BME280;16191;49.548;8.658;2023-02-02T00:39:39;100959.06;;;6.46;100.00
29121;BME280;16191;49.548;8.658;2023-02-02T00:42:08;100947.84;;;6.46;100.00
29121;BME280;16191;49.548;8.658;2023-02-02T00:44:36;100952.16;;;6.45;100.00
29121;BME280;16191;49.548;8.658;2023-02-02T00:47:21;100949.56;;;6.47;100.00
29121;BME280;16191;49.548;8.658;2023-02-02T00:49:48;100945.16;;;6.50;100.00
29121;BME280;16191;49.548;8.658;2023-02-02T00:52:15;100944.25;;;6.53;100.00
29121;BME280;16191;49.548;8.658;2023-02-02T00:54:43;100950.28;;;6.55;100.00
29121;BME280;16191;49.548;8.658;2023-02-02T00:57:13;100952.88;;;6.57;100.00
29121;BME280;16191;49.548;8.658;2023-02-02T00:59:40;100947.66;;;6.58;100.00
29121;BME280;16191;49.548;8.658;2023-02-02T01:02:11;100952.84;;;6.58;100.00
29121;BME280;16191;49.548;8.658;2023-02-02T01:05:15;100943.38;;;6.54;100.00
29121;BME280;16191;49.548;8.658;2023-02-02T01:11:38;100944.28;;;6.51;100.00
29121;BME280;16191;49.548;8.658;2023-02-02T01:14:26;100950.34;;;6.50;100.00
29121;BME280;16191;49.548;8.658;2023-02-02T01:17:14;100946.84;;;6.53;100.00
29121;BME280;16191;49.548;8.658;2023-02-02T01:23:35;100945.13;;;6.53;100.00
29121;BME280;16191;49.548;8.658;2023-02-02T01:26:05;100945.13;;;6.53;100.00
29121;BME280;16191;49.548;8.658;2023-02-02T01:28:52;100955.47;;;6.55;100.00
29121;BME280;16191;49.548;8.658;2023-02-02T01:31:38;100949.44;;;6.53;100.00
29121;BME280;16191;49.548;8.658;2023-02-02T01:35:15;100950.44;;;6.46;100.00
29121;BME280;16191;49.548;8.658;2023-02-02T01:37:42;100961.69;;;6.43;100.00
29121;BME280;16191;49.548;8.658;2023-02-02T01:40:09;100950.47;;;6.43;100.00
29121;BME280;16191;49.548;8.658;2023-02-02T01:42:36;100942.75;;;6.38;100.00
29121;BME280;16191;49.548;8.658;2023-02-02T01:45:41;100954.78;;;6.44;100.00
29121;BME280;16191;49.548;8.658;2023-02-02T01:48:09;100946.06;;;6.49;100.00
29121;BME280;16191;49.548;8.658;2023-02-02T01:50:59;100939.09;;;6.51;100.00
29121;BME280;16191;49.548;8.658;2023-02-02T01:53:48;100938.19;;;6.54;100.00
29121;BME280;16191;49.548;8.658;2023-02-02T01:56:48;100947.59;;;6.64;100.00
29121;BME280;16191;49.548;8.658;2023-02-02T01:59:37;100954.56;;;6.59;100.00
29121;BME280;16191;49.548;8.658;2023-02-02T02:02:26;100948.53;;;6.57;100.00
29121;BME280;16191;49.548;8.658;2023-02-02T02:04:54;100952.84;;;6.58;100.00
29121;BME280;16191;49.548;8.658;2023-02-02T02:07:21;100949.38;;;6.59;100.00
29121;BME280;16191;49.548;8.658;2023-02-02T02:09:48;100955.41;;;6.61;100.00
29121;BME280;16191;49.548;8.658;2023-02-02T02:12:15;100952.75;;;6.66;100.00
29121;BME280;16191;49.548;8.658;2023-02-02T02:14:44;100947.50;;;6.70;100.00
29121;BME280;16191;49.548;8.658;2023-02-02T02:18:05;100949.13;;;6.77;100.00
29121;BME280;16191;49.548;8.658;2023-02-02T02:20:48;100954.31;;;6.76;100.00
29121;BME280;16191;49.548;8.658;2023-02-02T02:29:44;100942.94;;;6.87;100.00
29121;BME280;16191;49.548;8.658;2023-02-02T02:32:40;100955.00;;;6.90;100.00
29121;BME280;16191;49.548;8.658;2023-02-02T02:38:20;100953.28;;;6.91;100.00
29121;BME280;16191;49.548;8.658;2023-02-02T02:40:57;100967.97;;;6.90;100.00
29121;BME280;16191;49.548;8.658;2023-02-02T02:43:29;100963.72;;;6.84;100.00
29121;BME280;16191;49.548;8.658;2023-02-02T02:45:57;100967.34;;;6.73;100.00
29121;BME280;16191;49.548;8.658;2023-02-02T02:48:24;100970.00;;;6.70;100.00
29121;BME280;16191;49.548;8.658;2023-02-02T02:50:51;100975.19;;;6.68;100.00
29121;BME280;16191;49.548;8.658;2023-02-02T02:53:22;100962.16;;;6.73;100.00
29121;BME280;16191;49.548;8.658;2023-02-02T02:55:55;100975.94;;;6.75;100.00
29121;BME280;16191;49.548;8.658;2023-02-02T02:58:46;100961.22;;;6.78;100.00
29121;BME280;16191;49.548;8.658;2023-02-02T03:01:42;100967.28;;;6.76;100.00
29121;BME280;16191;49.548;8.658;2023-02-02T03:04:38;100971.59;;;6.77;100.00
29121;BME280;16191;49.548;8.658;2023-02-02T03:07:19;100972.44;;;6.79;100.00
29121;BME280;16191;49.548;8.658;2023-02-02T03:09:49;100969.06;;;6.72;100.00
29121;BME280;16191;49.548;8.658;2023-02-02T03:12:17;100961.38;;;6.68;100.00
29121;BME280;16191;49.548;8.658;2023-02-02T03:14:43;100965.75;;;6.64;100.00
29121;BME280;16191;49.548;8.658;2023-02-02T03:17:10;100962.28;;;6.64;100.00
29121;BME280;16191;49.548;8.658;2023-02-02T03:19:37;100962.28;;;6.65;100.00
29121;BME280;16191;49.548;8.658;2023-02-02T03:22:03;100963.13;;;6.67;100.00
29121;BME280;16191;49.548;8.658;2023-02-02T03:24:30;100972.66;;;6.64;100.00
29121;BME280;16191;49.548;8.658;2023-02-02T03:26:57;100967.53;;;6.59;100.00
29121;BME280;16191;49.548;8.658;2023-02-02T03:29:24;100965.81;;;6.58;100.00
29121;BME280;16191;49.548;8.658;2023-02-02T03:31:51;100961.41;;;6.66;100.00
29121;BME280;16191;49.548;8.658;2023-02-02T03:34:17;100957.06;;;6.68;100.00
29121;BME280;16191;49.548;8.658;2023-02-02T03:36:44;100968.13;;;6.79;100.00
29121;BME280;16191;49.548;8.658;2023-02-02T03:39:11;100975.03;;;6.79;100.00
29121;BME280;16191;49.548;8.658;2023-02-02T03:41:38;100973.25;;;6.84;100.00
29121;BME280;16191;49.548;8.658;2023-02-02T03:44:05;100980.25;;;6.77;100.00
29121;BME280;16191;49.548;8.658;2023-02-02T03:46:31;100972.59;;;6.70;100.00
29121;BME280;16191;49.548;8.658;2023-02-02T03:48:58;100976.13;;;6.63;100.00
29121;BME280;16191;49.548;8.658;2023-02-02T03:51:25;100976.19;;;6.58;100.00
29121;BME280;16191;49.548;8.658;2023-02-02T03:53:52;100980.56;;;6.53;100.00
29121;BME280;16191;49.548;8.658;2023-02-02T03:56:18;100980.53;;;6.54;100.00
29121;BME280;16191;49.548;8.658;2023-02-02T03:58:45;100986.69;;;6.49;100.00
29121;BME280;16191;49.548;8.658;2023-02-02T04:01:13;100997.13;;;6.44;100.00
29121;BME280;16191;49.548;8.658;2023-02-02T04:03:40;100999.66;;;6.49;100.00
29121;BME280;16191;49.548;8.658;2023-02-02T04:06:07;100993.50;;;6.54;100.00
29121;BME280;16191;49.548;8.658;2023-02-02T04:08:34;100983.25;;;6.48;100.00
29121;BME280;16191;49.548;8.658;2023-02-02T04:11:01;100998.78;;;6.48;100.00
29121;BME280;16191;49.548;8.658;2023-02-02T04:13:28;100996.19;;;6.48;100.00
29121;BME280;16191;49.548;8.658;2023-02-02T04:15:59;101003.16;;;6.45;100.00
29121;BME280;16191;49.548;8.658;2023-02-02T04:18:26;100995.38;;;6.46;100.00
29121;BME280;16191;49.548;8.658;2023-02-02T04:20:58;100993.69;;;6.41;100.00
29121;BME280;16191;49.548;8.658;2023-02-02T04:23:25;100998.94;;;6.35;100.00
29121;BME280;16191;49.548;8.658;2023-02-02T04:25:52;101012.78;;;6.32;100.00
29121;BME280;16191;49.548;8.658;2023-02-02T04:28:19;101002.38;;;6.37;100.00
29121;BME280;16191;49.548;8.658;2023-02-02T04:30:51;101000.63;;;6.37;100.00
29121;BME280;16191;49.548;8.658;2023-02-02T04:33:20;100999.75;;;6.38;100.00
29121;BME280;16191;49.548;8.658;2023-02-02T04:35:48;100999.75;;;6.40;100.00
29121;BME280;16191;49.548;8.658;2023-02-02T04:38:14;101008.41;;;6.37;100.00
29121;BME280;16191;49.548;8.658;2023-02-02T04:40:43;101004.09;;;6.36;100.00
29121;BME280;16191;49.548;8.658;2023-02-02T04:43:10;100998.94;;;6.35;100.00
29121;BME280;16191;49.548;8.658;2023-02-02T04:45:38;101004.09;;;6.36;100.00
29121;BME280;16191;49.548;8.658;2023-02-02T04:48:05;101004.97;;;6.35;100.00
29121;BME280;16191;49.548;8.658;2023-02-02T04:50:31;101010.97;;;6.42;100.00
29121;BME280;16191;49.548;8.658;2023-02-02T04:52:58;101006.66;;;6.41;100.00
29121;BME280;16191;49.548;8.658;2023-02-02T04:55:25;101009.25;;;6.41;100.00
29121;BME280;16191;49.548;8.658;2023-02-02T04:57:52;101005.75;;;6.43;100.00
29121;BME280;16191;49.548;8.658;2023-02-02T05:00:19;100994.53;;;6.44;100.00
29121;BME280;16191;49.548;8.658;2023-02-02T05:02:46;101003.94;;;6.50;100.00
29121;BME280;16191;49.548;8.658;2023-02-02T05:05:13;101006.59;;;6.47;100.00
29121;BME280;16191;49.548;8.658;2023-02-02T05:07:40;101009.97;;;6.52;100.00
29121;BME280;16191;49.548;8.658;2023-02-02T05:10:08;101015.91;;;6.60;100.00
29121;BME280;16191;49.548;8.658;2023-02-02T05:12:35;101008.16;;;6.59;100.00
29121;BME280;16191;49.548;8.658;2023-02-02T05:15:02;101013.38;;;6.57;100.00
29121;BME280;16191;49.548;8.658;2023-02-02T05:17:31;101014.22;;;6.59;100.00
29121;BME280;16191;49.548;8.658;2023-02-02T05:19:58;101025.47;;;6.57;100.00
29121;BME280;16191;49.548;8.658;2023-02-02T05:22:25;101029.72;;;6.64;100.00
29121;BME280;16191;49.548;8.658;2023-02-02T05:24:52;101026.22;;;6.66;100.00
29121;BME280;16191;49.548;8.658;2023-02-02T05:27:19;101029.66;;;6.70;100.00
29121;BME280;16191;49.548;8.658;2023-02-02T05:29:48;101027.00;;;6.73;100.00
29121;BME280;16191;49.548;8.658;2023-02-02T05:32:15;101030.44;;;6.75;100.00
29121;BME280;16191;49.548;8.658;2023-02-02T05:34:42;101028.63;;;6.80;100.00
29121;BME280;16191;49.548;8.658;2023-02-02T05:37:08;101048.56;;;6.76;100.00
29121;BME280;16191;49.548;8.658;2023-02-02T05:39:35;101031.25;;;6.77;100.00
29121;BME280;16191;49.548;8.658;2023-02-02T05:42:02;101036.56;;;6.69;100.00
29121;BME280;16191;49.548;8.658;2023-02-02T05:44:29;101053.00;;;6.70;100.00
29121;BME280;16191;49.548;8.658;2023-02-02T05:46:56;101038.16;;;6.79;100.00
29121;BME280;16191;49.548;8.658;2023-02-02T05:49:25;101041.63;;;6.77;100.00
29121;BME280;16191;49.548;8.658;2023-02-02T05:51:54;101049.44;;;6.75;100.00
29121;BME280;16191;49.548;8.658;2023-02-02T05:54:22;101053.78;;;6.73;100.00
29121;BME280;16191;49.548;8.658;2023-02-02T05:56:51;101045.94;;;6.79;100.00
29121;BME280;16191;49.548;8.658;2023-02-02T05:59:19;101049.38;;;6.80;100.00
29121;BME280;16191;49.548;8.658;2023-02-02T06:01:46;101045.06;;;6.79;100.00
29121;BME280;16191;49.548;8.658;2023-02-02T06:04:14;101051.09;;;6.81;100.00
29121;BME280;16191;49.548;8.658;2023-02-02T06:06:41;101062.28;;;6.86;100.00
29121;BME280;16191;49.548;8.658;2023-02-02T06:09:08;101056.19;;;6.90;100.00
29121;BME280;16191;49.548;8.658;2023-02-02T06:11:35;101053.63;;;6.87;100.00
29121;BME280;16191;49.548;8.658;2023-02-02T06:14:01;101044.00;;;6.94;100.00
29121;BME280;16191;49.548;8.658;2023-02-02T06:16:28;101062.25;;;6.91;100.00
29121;BME280;16191;49.548;8.658;2023-02-02T06:18:55;101044.84;;;6.97;100.00
29121;BME280;16191;49.548;8.658;2023-02-02T06:21:22;101058.66;;;6.98;100.00
29121;BME280;16191;49.548;8.658;2023-02-02T06:23:50;101063.88;;;6.96;100.00
29121;BME280;16191;49.548;8.658;2023-02-02T06:26:18;101061.41;;;6.88;100.00
29121;BME280;16191;49.548;8.658;2023-02-02T06:28:49;101061.44;;;6.84;100.00
29121;BME280;16191;49.548;8.658;2023-02-02T06:31:15;101073.56;;;6.83;100.00
29121;BME280;16191;49.548;8.658;2023-02-02T06:33:53;101076.09;;;6.88;100.00
29121;BME280;16191;49.548;8.658;2023-02-02T06:36:21;101077.88;;;6.83;100.00
29121;BME280;16191;49.548;8.658;2023-02-02T06:38:49;101081.31;;;6.86;100.00
29121;BME280;16191;49.548;8.658;2023-02-02T06:41:17;101070.97;;;6.83;100.00
29121;BME280;16191;49.548;8.658;2023-02-02T06:43:46;101078.78;;;6.79;100.00
29121;BME280;16191;49.548;8.658;2023-02-02T06:46:14;101077.03;;;6.81;100.00
29121;BME280;16191;49.548;8.658;2023-02-02T06:48:40;101074.44;;;6.82;100.00
29121;BME280;16191;49.548;8.658;2023-02-02T06:51:07;101071.00;;;6.80;100.00
29121;BME280;16191;49.548;8.658;2023-02-02T06:53:34;101079.66;;;6.79;100.00
29121;BME280;16191;49.548;8.658;2023-02-02T06:56:03;101076.22;;;6.77;100.00
29121;BME280;16191;49.548;8.658;2023-02-02T06:58:31;101078.81;;;6.77;100.00
29121;BME280;16191;49.548;8.658;2023-02-02T07:01:12;101082.25;;;6.79;100.00
29121;BME280;16191;49.548;8.658;2023-02-02T07:03:40;101082.22;;;6.82;100.00
29121;BME280;16191;49.548;8.658;2023-02-02T07:06:21;101077.09;;;6.78;100.00
29121;BME280;16191;49.548;8.658;2023-02-02T07:08:49;101080.50;;;6.80;100.00
29121;BME280;16191;49.548;8.658;2023-02-02T07:11:29;101088.31;;;6.78;100.00
29121;BME280;16191;49.548;8.658;2023-02-02T07:13:56;101076.19;;;6.80;100.00
29121;BME280;16191;49.548;8.658;2023-02-02T07:16:23;101086.56;;;6.79;100.00
29121;BME280;16191;49.548;8.658;2023-02-02T07:18:50;101071.88;;;6.78;100.00
29121;BME280;16191;49.548;8.658;2023-02-02T07:21:22;101077.06;;;6.79;100.00
29121;BME280;16191;49.548;8.658;2023-02-02T07:23:49;101083.97;;;6.80;100.00
29121;BME280;16191;49.548;8.658;2023-02-02T07:26:17;101084.81;;;6.82;100.00
29121;BME280;16191;49.548;8.658;2023-02-02T07:28:45;101102.94;;;6.85;100.00
29121;BME280;16191;49.548;8.658;2023-02-02T07:31:21;101102.94;;;6.84;100.00
29121;BME280;16191;49.548;8.658;2023-02-02T07:33:48;101097.78;;;6.82;100.00
29121;BME280;16191;49.548;8.658;2023-02-02T07:36:17;101102.94;;;6.84;100.00
29121;BME280;16191;49.548;8.658;2023-02-02T07:38:45;101099.50;;;6.83;100.00
29121;BME280;16191;49.548;8.658;2023-02-02T07:41:14;101109.03;;;6.83;100.00
29121;BME280;16191;49.548;8.658;2023-02-02T07:43:41;101115.91;;;6.85;100.00
29121;BME280;16191;49.548;8.658;2023-02-02T07:46:09;101115.94;;;6.84;100.00
29121;BME280;16191;49.548;8.658;2023-02-02T07:48:36;101116.78;;;6.86;100.00
29121;BME280;16191;49.548;8.658;2023-02-02T07:51:04;101125.41;;;6.88;100.00
29121;BME280;16191;49.548;8.658;2023-02-02T07:53:32;101127.13;;;6.89;100.00
29121;BME280;16191;49.548;8.658;2023-02-02T07:56:10;101123.66;;;6.88;100.00
29121;BME280;16191;49.548;8.658;2023-02-02T07:58:37;101115.03;;;6.88;100.00
29121;BME280;16191;49.548;8.658;2023-02-02T08:01:05;101121.91;;;6.91;100.00
29121;BME280;16191;49.548;8.658;2023-02-02T08:03:33;101114.06;;;6.94;100.00
29121;BME280;16191;49.548;8.658;2023-02-02T08:06:00;101117.50;;;6.94;100.00
29121;BME280;16191;49.548;8.658;2023-02-02T08:08:27;101127.88;;;6.97;100.00
29121;BME280;16191;49.548;8.658;2023-02-02T08:10:54;101129.56;;;7.00;100.00
29121;BME280;16191;49.548;8.658;2023-02-02T08:13:20;101133.91;;;6.98;100.00
29121;BME280;16191;49.548;8.658;2023-02-02T08:15:47;101133.88;;;7.02;100.00
29121;BME280;16191;49.548;8.658;2023-02-02T08:18:14;101143.38;;;7.02;100.00
29121;BME280;16191;49.548;8.658;2023-02-02T08:20:41;101141.66;;;7.01;100.00
29121;BME280;16191;49.548;8.658;2023-02-02T08:23:08;101147.69;;;7.03;100.00
29121;BME280;16191;49.548;8.658;2023-02-02T08:25:41;101140.78;;;7.02;100.00
29121;BME280;16191;49.548;8.658;2023-02-02T08:28:08;101137.34;;;7.00;100.00
29121;BME280;16191;49.548;8.658;2023-02-02T08:30:34;101132.06;;;7.07;100.00
29121;BME280;16191;49.548;8.658;2023-02-02T08:33:01;101145.94;;;7.05;100.00
29121;BME280;16191;49.548;8.658;2023-02-02T08:35:28;101143.34;;;7.06;100.00
29121;BME280;16191;49.548;8.658;2023-02-02T08:37:55;101140.72;;;7.09;100.00
29121;BME280;16191;49.548;8.658;2023-02-02T08:40:21;101150.22;;;7.09;100.00
29121;BME280;16191;49.548;8.658;2023-02-02T08:42:52;101151.94;;;7.10;100.00
29121;BME280;16191;49.548;8.658;2023-02-02T08:45:19;101146.75;;;7.10;100.00
29121;BME280;16191;49.548;8.658;2023-02-02T08:48:05;101151.91;;;7.13;100.00
29121;BME280;16191;49.548;8.658;2023-02-02T08:50:38;101150.19;;;7.13;100.00
29121;BME280;16191;49.548;8.658;2023-02-02T08:53:04;101156.19;;;7.15;100.00
29121;BME280;16191;49.548;8.658;2023-02-02T08:55:31;101157.88;;;7.18;100.00
29121;BME280;16191;49.548;8.658;2023-02-02T08:57:57;101156.09;;;7.23;100.00
29121;BME280;16191;49.548;8.658;2023-02-02T09:00:24;101158.66;;;7.26;100.00
29121;BME280;16191;49.548;8.658;2023-02-02T09:02:51;101163.88;;;7.25;100.00
29121;BME280;16191;49.548;8.658;2023-02-02T09:05:17;101169.00;;;7.29;100.00
29121;BME280;16191;49.548;8.658;2023-02-02T09:07:44;101168.19;;;7.26;100.00
29121;BME280;16191;49.548;8.658;2023-02-02T09:10:14;101167.28;;;7.30;100.00
29121;BME280;16191;49.548;8.658;2023-02-02T09:12:40;101163.81;;;7.31;100.00
29121;BME280;16191;49.548;8.658;2023-02-02T09:15:07;101167.25;;;7.33;100.00
29121;BME280;16191;49.548;8.658;2023-02-02T09:17:34;101167.22;;;7.36;100.00
29121;BME280;16191;49.548;8.658;2023-02-02T09:20:01;101171.47;;;7.38;100.00
29121;BME280;16191;49.548;8.658;2023-02-02T09:22:27;101174.88;;;7.42;100.00
29121;BME280;16191;49.548;8.658;2023-02-02T09:24:54;101167.91;;;7.45;100.00
29121;BME280;16191;49.548;8.658;2023-02-02T09:27:21;101167.03;;;7.46;100.00
29121;BME280;16191;49.548;8.658;2023-02-02T09:29:47;101178.25;;;7.51;100.00
29121;BME280;16191;49.548;8.658;2023-02-02T09:32:14;101166.94;;;7.55;100.00
29121;BME280;16191;49.548;8.658;2023-02-02T09:34:41;101163.38;;;7.60;100.00
29121;BME280;16191;49.548;8.658;2023-02-02T09:37:07;101171.16;;;7.61;100.00
29121;BME280;16191;49.548;8.658;2023-02-02T09:39:34;101161.63;;;7.62;100.00
29121;BME280;16191;49.548;8.658;2023-02-02T09:45:13;101171.97;;;7.65;100.00
29121;BME280;16191;49.548;8.658;2023-02-02T09:47:56;101165.88;;;7.67;100.00
29121;BME280;16191;49.548;8.658;2023-02-02T09:50:37;101171.94;;;7.68;100.00
29121;BME280;16191;49.548;8.658;2023-02-02T09:53:21;101174.53;;;7.69;100.00
29121;BME280;16191;49.548;8.658;2023-02-02T09:55:51;101177.97;;;7.71;100.00
29121;BME280;16191;49.548;8.658;2023-02-02T09:58:47;101184.91;;;7.71;100.00
29121;BME280;16191;49.548;8.658;2023-02-02T10:01:17;101182.25;;;7.74;100.00
29121;BME280;16191;49.548;8.658;2023-02-02T10:06:39;101192.66;;;7.74;100.00
29121;BME280;16191;49.548;8.658;2023-02-02T10:11:42;101194.31;;;7.78;100.00
29121;BME280;16191;49.548;8.658;2023-02-02T10:14:18;101190.88;;;7.77;100.00
29121;BME280;16191;49.548;8.658;2023-02-02T10:16:51;101196.00;;;7.80;100.00
29121;BME280;16191;49.548;8.658;2023-02-02T10:19:19;101204.66;;;7.81;100.00
29121;BME280;16191;49.548;8.658;2023-02-02T10:22:01;101214.19;;;7.80;100.00
29121;BME280;16191;49.548;8.658;2023-02-02T10:24:30;101218.50;;;7.81;100.00
29121;BME280;16191;49.548;8.658;2023-02-02T10:27:01;101214.25;;;7.79;100.00
29121;BME280;16191;49.548;8.658;2023-02-02T10:29:35;101209.84;;;7.81;100.00
29121;BME280;16191;49.548;8.658;2023-02-02T10:32:25;101214.16;;;7.82;100.00
29121;BME280;16191;49.548;8.658;2023-02-02T10:37:46;101209.81;;;7.82;100.00
29121;BME280;16191;49.548;8.658;2023-02-02T10:40:29;101215.91;;;7.80;100.00
29121;BME280;16191;49.548;8.658;2023-02-02T10:46:00;101219.34;;;7.82;100.00
29121;BME280;16191;49.548;8.658;2023-02-02T10:48:32;101223.69;;;7.81;100.00
29121;BME280;16191;49.548;8.658;2023-02-02T10:51:20;101226.28;;;7.81;100.00
29121;BME280;16191;49.548;8.658;2023-02-02T10:53:51;101228.91;;;7.81;100.00
29121;BME280;16191;49.548;8.658;2023-02-02T10:56:32;101223.69;;;7.81;100.00
29121;BME280;16191;49.548;8.658;2023-02-02T10:59:06;101218.50;;;7.81;100.00
29121;BME280;16191;49.548;8.658;2023-02-02T11:01:37;101219.38;;;7.80;100.00
29121;BME280;16191;49.548;8.658;2023-02-02T11:04:03;101234.94;;;7.82;100.00
29121;BME280;16191;49.548;8.658;2023-02-02T11:06:50;101235.81;;;7.82;100.00
29121;BME280;16191;49.548;8.658;2023-02-02T11:09:35;101229.78;;;7.80;100.00
29121;BME280;16191;49.548;8.658;2023-02-02T11:12:31;101228.00;;;7.84;100.00
29121;BME280;16191;49.548;8.658;2023-02-02T11:15:21;101226.25;;;7.84;100.00
29121;BME280;16191;49.548;8.658;2023-02-02T11:17:50;101218.47;;;7.84;100.00
29121;BME280;16191;49.548;8.658;2023-02-02T11:20:32;101220.19;;;7.84;100.00
29121;BME280;16191;49.548;8.658;2023-02-02T11:23:01;101222.78;;;7.85;100.00
29121;BME280;16191;49.548;8.658;2023-02-02T11:25:38;101214.09;;;7.86;100.00
29121;BME280;16191;49.548;8.658;2023-02-02T11:28:10;101213.22;;;7.87;100.00
29121;BME280;16191;49.548;8.658;2023-02-02T11:30:48;101215.75;;;7.94;100.00
29121;BME280;16191;49.548;8.658;2023-02-02T11:33:35;101223.53;;;7.94;100.00
29121;BME280;16191;49.548;8.658;2023-02-02T11:36:17;101217.47;;;7.95;100.00
29121;BME280;16191;49.548;8.658;2023-02-02T11:38:44;101216.56;;;7.97;100.00
29121;BME280;16191;49.548;8.658;2023-02-02T11:41:11;101215.66;;;8.00;100.00
29121;BME280;16191;49.548;8.658;2023-02-02T11:43:50;101217.41;;;7.99;100.00
29121;BME280;16191;49.548;8.658;2023-02-02T11:46:23;101213.84;;;8.03;100.00
29121;BME280;16191;49.548;8.658;2023-02-02T11:49:11;101206.06;;;8.03;100.00
29121;BME280;16191;49.548;8.658;2023-02-02T11:51:41;101222.50;;;8.05;100.00
29121;BME280;16191;49.548;8.658;2023-02-02T11:54:15;101211.19;;;8.08;100.00
29121;BME280;16191;49.548;8.658;2023-02-02T11:56:50;101205.97;;;8.09;100.00
29121;BME280;16191;49.548;8.658;2023-02-02T11:59:37;101208.53;;;8.11;100.00
29121;BME280;16191;49.548;8.658;2023-02-02T12:02:28;101191.19;;;8.13;100.00
29121;BME280;16191;49.548;8.658;2023-02-02T12:07:35;101192.72;;;8.24;100.00
29121;BME280;16191;49.548;8.658;2023-02-02T12:15:46;101197.91;;;8.24;100.00
29121;BME280;16191;49.548;8.658;2023-02-02T12:18:43;101210.03;;;8.25;100.00
29121;BME280;16191;49.548;8.658;2023-02-02T12:21:34;101210.88;;;8.27;100.00
29121;BME280;16191;49.548;8.658;2023-02-02T12:27:10;101212.53;;;8.35;100.00
29121;BME280;16191;49.548;8.658;2023-02-02T12:32:46;101214.16;;;8.42;100.00
29121;BME280;16191;49.548;8.658;2023-02-02T12:43:53;101206.03;;;8.60;100.00
29121;BME280;16191;49.548;8.658;2023-02-02T12:49:12;101210.34;;;8.63;100.00
29121;BME280;16191;49.548;8.658;2023-02-02T12:58:00;101185.03;;;8.69;100.00
29121;BME280;16191;49.548;8.658;2023-02-02T13:00:42;101192.00;;;8.69;100.00
29121;BME280;16191;49.548;8.658;2023-02-02T13:03:20;101180.72;;;8.68;100.00
29121;BME280;16191;49.548;8.658;2023-02-02T13:05:57;101185.97;;;8.67;100.00
29121;BME280;16191;49.548;8.658;2023-02-02T13:08:51;101187.78;;;8.63;100.00
29121;BME280;16191;49.548;8.658;2023-02-02T13:11:31;101186.03;;;8.64;100.00
29121;BME280;16191;49.548;8.658;2023-02-02T13:14:15;101190.41;;;8.62;100.00
29121;BME280;16191;49.548;8.658;2023-02-02T13:16:47;101193.00;;;8.62;100.00
29121;BME280;16191;49.548;8.658;2023-02-02T13:19:45;101186.91;;;8.63;100.00
29121;BME280;16191;49.548;8.658;2023-02-02T13:22:24;101198.19;;;8.63;100.00
29121;BME280;16191;49.548;8.658;2023-02-02T13:24:54;101193.91;;;8.61;100.00
29121;BME280;16191;49.548;8.658;2023-02-02T13:27:22;101201.69;;;8.62;100.00
29121;BME280;16191;49.548;8.658;2023-02-02T13:29:57;101191.28;;;8.62;100.00
29121;BME280;16191;49.548;8.658;2023-02-02T13:32:33;101193.00;;;8.63;100.00
29121;BME280;16191;49.548;8.658;2023-02-02T13:35:04;101193.00;;;8.63;100.00
29121;BME280;16191;49.548;8.658;2023-02-02T13:37:54;101195.47;;;8.68;100.00
29121;BME280;16191;49.548;8.658;2023-02-02T13:51:41;101205.78;;;8.74;100.00
29121;BME280;16191;49.548;8.658;2023-02-02T14:00:21;101214.44;;;8.76;100.00
29121;BME280;16191;49.548;8.658;2023-02-02T14:03:04;101224.81;;;8.77;100.00
29121;BME280;16191;49.548;8.658;2023-02-02T14:05:40;101220.47;;;8.78;100.00
29121;BME280;16191;49.548;8.658;2023-02-02T14:08:18;101216.94;;;8.80;100.00
29121;BME280;16191;49.548;8.658;2023-02-02T14:13:22;101223.06;;;8.78;100.00
29121;BME280;16191;49.548;8.658;2023-02-02T14:16:23;101214.34;;;8.80;100.00
29121;BME280;16191;49.548;8.658;2023-02-02T14:19:15;101217.84;;;8.79;100.00
29121;BME280;16191;49.548;8.658;2023-02-02T14:34:41;101261.19;;;8.80;100.00
29121;BME280;16191;49.548;8.658;2023-02-02T14:45:33;101253.44;;;8.77;100.00
29121;BME280;16191;49.548;8.658;2023-02-02T14:48:06;101251.75;;;8.75;100.00
29121;BME280;16191;49.548;8.658;2023-02-02T14:53:32;101272.59;;;8.73;100.00
29121;BME280;16191;49.548;8.658;2023-02-02T14:56:04;101277.81;;;8.72;100.00
29121;BME280;16191;49.548;8.658;2023-02-02T14:58:53;101270.03;;;8.70;100.00
29121;BME280;16191;49.548;8.658;2023-02-02T15:01:28;101281.31;;;8.69;100.00
29121;BME280;16191;49.548;8.658;2023-02-02T15:17:08;101298.78;;;8.63;100.00